Paganini — V2CL8 — position and weather

sailwx.info

Track history (hours):
 
Tides and Currents Weather Stations Pressure Air Temp Water Temp Dewpoint Dewpoint Depression Visibility Wind Speed Wind Dir Waves Ship Positions

Paganini

Last reported at 2016-Jul-26 21:17 UTC. Time now 2016-Jul-27 01:14 UTC.
Position N 53°34' W 004°01'.

Length 90 m; draft 3.7 m.

Type: Cargo ship. MMSI: 305040000.

Date/timePositionNaut miles runAvg speedWind from/ knotsBaromVisibWave heightAir tempDewpointWater temp
2016-Jul-26 21:17N 53°34' W 004°01'710.3
2016-Jul-26 20:33N 53°33' W 003°49'1110.6
2016-Jul-26 19:33N 53°33' W 003°31'1010.4
2016-Jul-26 18:33N 53°31' W 003°14'1211.9
2016-Jul-26 17:33N 53°23' W 002°59'5 5.1
2016-Jul-26 16:34N 53°18' W 002°55'1 1.2
2016-Jul-26 15:33N 53°18' W 002°54'0 0.0
2016-Jul-26 14:33N 53°18' W 002°54'0 0.0
2016-Jul-26 13:33N 53°18' W 002°54'0 0.0
2016-Jul-26 12:33N 53°18' W 002°54'0 0.0
2016-Jul-26 11:33N 53°18' W 002°54'0 0.0
2016-Jul-26 10:24N 53°18' W 002°54'0 0.0
2016-Jul-26 09:33N 53°18' W 002°54'0 0.0
2016-Jul-26 08:33N 53°18' W 002°54'0 0.0
2016-Jul-26 07:33N 53°18' W 002°54'0 0.0
2016-Jul-26 06:33N 53°18' W 002°54'0 0.0
2016-Jul-26 05:33N 53°18' W 002°54'0 0.0
2016-Jul-26 04:33N 53°18' W 002°54'0 0.0
2016-Jul-26 03:33N 53°18' W 002°54'0 0.0
2016-Jul-26 02:27N 53°18' W 002°54'0 0.0
2016-Jul-26 01:33N 53°18' W 002°54'0 0.0
2016-Jul-26 00:30N 53°18' W 002°54'0 0.0
2016-Jul-25 23:33N 53°18' W 002°54'0 0.0
2016-Jul-25 22:33N 53°18' W 002°54'0 0.0
2016-Jul-25 21:33N 53°18' W 002°54'0 0.0
2016-Jul-25 20:33N 53°18' W 002°54'0 0.0
2016-Jul-25 19:27N 53°18' W 002°54'0 0.0
2016-Jul-25 18:30N 53°18' W 002°54'0 0.0
2016-Jul-25 17:33N 53°18' W 002°54'0 0.0
2016-Jul-25 16:33N 53°18' W 002°54'0 0.0
2016-Jul-25 15:33N 53°18' W 002°54'0 0.0
2016-Jul-25 14:33N 53°18' W 002°54'0 0.0
2016-Jul-25 13:33N 53°18' W 002°54'0 0.0
2016-Jul-25 12:33N 53°18' W 002°54'0 0.0
2016-Jul-25 11:24N 53°18' W 002°54'0 0.0
2016-Jul-25 10:27N 53°18' W 002°54'0 0.0
2016-Jul-25 09:33N 53°18' W 002°54'0 0.0
2016-Jul-25 08:30N 53°18' W 002°54'0 0.0
2016-Jul-25 07:33N 53°18' W 002°54'0 0.0
2016-Jul-25 06:27N 53°18' W 002°54'0 0.0
2016-Jul-25 05:27N 53°18' W 002°54'0 0.0
2016-Jul-25 04:33N 53°18' W 002°54'0 0.0
2016-Jul-25 03:33N 53°18' W 002°54'0 0.0
2016-Jul-25 02:33N 53°18' W 002°54'0 0.0
2016-Jul-25 01:33N 53°18' W 002°54'0 0.0
2016-Jul-25 00:33N 53°18' W 002°54'0 0.0
2016-Jul-24 23:30N 53°18' W 002°54'0 0.0
2016-Jul-24 22:33N 53°18' W 002°54'0 0.0
2016-Jul-24 21:30N 53°18' W 002°54'0 0.0
2016-Jul-24 20:33N 53°18' W 002°54'0 0.0
2016-Jul-24 19:33N 53°18' W 002°54'0 0.0
2016-Jul-24 18:27N 53°18' W 002°54'0 0.0
2016-Jul-24 17:30N 53°18' W 002°54'0 0.1
2016-Jul-24 16:33N 53°18' W 002°54'3 2.6
2016-Jul-24 15:33N 53°20' W 002°57'4 3.8
2016-Jul-24 14:33N 53°23' W 002°60'5 5.4
2016-Jul-24 13:33N 53°28' W 003°03'8 7.5
2016-Jul-24 12:33N 53°31' W 003°15'5 5.4
2016-Jul-24 11:33N 53°29' W 003°23'1 1.0
2016-Jul-24 10:32N 53°28' W 003°22'0 0.0
2016-Jul-24 09:32N 53°28' W 003°22'0 0.1
2016-Jul-24 08:32N 53°28' W 003°22'0 0.0
2016-Jul-24 07:32N 53°28' W 003°22'0 0.0
2016-Jul-24 06:32N 53°28' W 003°22'0 0.0
2016-Jul-24 05:32N 53°28' W 003°22'0 0.0
2016-Jul-24 04:26N 53°28' W 003°22'0 0.0
2016-Jul-24 03:32N 53°28' W 003°22'0 0.0
2016-Jul-24 02:20N 53°28' W 003°22'0 0.1
2016-Jul-24 01:32N 53°28' W 003°22'0 0.0
2016-Jul-24 00:32N 53°28' W 003°22'0 0.0
2016-Jul-23 23:32N 53°28' W 003°22'0 0.0
2016-Jul-23 22:32N 53°28' W 003°22'0 0.2
2016-Jul-23 21:33N 53°28' W 003°22'8 7.6
2016-Jul-23 20:33N 53°31' W 003°34'1010.2
2016-Jul-23 19:33N 53°31' W 003°52'200 8.6
2016-Jul-22 20:22N 50°25' W 005°53'118 9.1
2016-Jul-22 07:19N 48°27' W 005°36'7 9.2
2016-Jul-22 06:33N 48°21' W 005°32'18 9.1
2016-Jul-22 04:33N 48°05' W 005°19'10 9.7
2016-Jul-22 03:33N 47°57' W 005°11'9 9.4
2016-Jul-22 02:34N 47°51' W 004°60'10 9.6
2016-Jul-22 01:34N 47°45' W 004°48'10 9.6
2016-Jul-22 00:33N 47°39' W 004°37'18 9.2
2016-Jul-21 22:33N 47°28' W 004°15'9 9.3
2016-Jul-21 21:33N 47°23' W 004°04'9 9.4
2016-Jul-21 20:33N 47°17' W 003°53'9 9.4
2016-Jul-21 19:33N 47°11' W 003°43'9 9.2
2016-Jul-21 18:33N 47°05' W 003°32'9 9.1
2016-Jul-21 17:33N 46°60' W 003°21'9 8.7
2016-Jul-21 16:33N 46°55' W 003°11'9 8.6
2016-Jul-21 15:33N 46°50' W 003°01'35 8.8
2016-Jul-21 11:33N 46°29' W 002°19'9 9.1
2016-Jul-21 10:33N 46°24' W 002°08'9 9.4
2016-Jul-21 09:33N 46°18' W 001°57'9 9.3
2016-Jul-21 08:33N 46°13' W 001°46'10 9.3
2016-Jul-21 07:31N 46°08' W 001°34'10 9.9
2016-Jul-21 06:33N 46°06' W 001°21'9 8.8
2016-Jul-21 05:34N 46°00' W 001°11'3 0.1
2016-Jul-19 13:32N 45°59' W 001°07'7 6.7
2016-Jul-19 12:29N 46°04' W 001°13'0 0.1
2016-Jul-19 11:32N 46°05' W 001°13'0 0.1
2016-Jul-19 10:29N 46°05' W 001°14'0 0.0
2016-Jul-19 09:29N 46°05' W 001°14'0 0.0
2016-Jul-19 08:33N 46°05' W 001°14'0 0.2
2016-Jul-19 07:33N 46°05' W 001°14'17 5.6
2016-Jul-19 04:33N 46°08' W 001°38'6 5.7
2016-Jul-19 03:33N 46°06' W 001°45'6 6.3
2016-Jul-19 02:33N 46°02' W 001°52'6 5.5
2016-Jul-19 01:31N 45°58' W 001°58'  
Track history (hours):
 
Tides and Currents Weather Stations Pressure Air Temp Water Temp Dewpoint Dewpoint Depression Visibility Wind Speed Wind Dir Waves Ship Positions

Paganini

Last reported at 2016-Jul-26 21:17 UTC. Time now 2016-Jul-27 01:14 UTC.
Position N 53°34' W 004°01'.

Length 90 m; draft 3.7 m.

Type: Cargo ship. MMSI: 305040000.

Date/timePositionNaut miles runAvg speedWind from/ knotsBaromVisibWave heightAir tempDewpointWater temp
2016-Jul-26 21:17N 53°34' W 004°01'710.3
2016-Jul-26 20:33N 53°33' W 003°49'1110.6
2016-Jul-26 19:33N 53°33' W 003°31'1010.4
2016-Jul-26 18:33N 53°31' W 003°14'1211.9
2016-Jul-26 17:33N 53°23' W 002°59'5 5.1
2016-Jul-26 16:34N 53°18' W 002°55'1 1.2
2016-Jul-26 15:33N 53°18' W 002°54'0 0.0
2016-Jul-26 14:33N 53°18' W 002°54'0 0.0
2016-Jul-26 13:33N 53°18' W 002°54'0 0.0
2016-Jul-26 12:33N 53°18' W 002°54'0 0.0
2016-Jul-26 11:33N 53°18' W 002°54'0 0.0
2016-Jul-26 10:24N 53°18' W 002°54'0 0.0
2016-Jul-26 09:33N 53°18' W 002°54'0 0.0
2016-Jul-26 08:33N 53°18' W 002°54'0 0.0
2016-Jul-26 07:33N 53°18' W 002°54'0 0.0
2016-Jul-26 06:33N 53°18' W 002°54'0 0.0
2016-Jul-26 05:33N 53°18' W 002°54'0 0.0
2016-Jul-26 04:33N 53°18' W 002°54'0 0.0
2016-Jul-26 03:33N 53°18' W 002°54'0 0.0
2016-Jul-26 02:27N 53°18' W 002°54'0 0.0
2016-Jul-26 01:33N 53°18' W 002°54'0 0.0
2016-Jul-26 00:30N 53°18' W 002°54'0 0.0
2016-Jul-25 23:33N 53°18' W 002°54'0 0.0
2016-Jul-25 22:33N 53°18' W 002°54'0 0.0
2016-Jul-25 21:33N 53°18' W 002°54'0 0.0
2016-Jul-25 20:33N 53°18' W 002°54'0 0.0
2016-Jul-25 19:27N 53°18' W 002°54'0 0.0
2016-Jul-25 18:30N 53°18' W 002°54'0 0.0
2016-Jul-25 17:33N 53°18' W 002°54'0 0.0
2016-Jul-25 16:33N 53°18' W 002°54'0 0.0
2016-Jul-25 15:33N 53°18' W 002°54'0 0.0
2016-Jul-25 14:33N 53°18' W 002°54'0 0.0
2016-Jul-25 13:33N 53°18' W 002°54'0 0.0
2016-Jul-25 12:33N 53°18' W 002°54'0 0.0
2016-Jul-25 11:24N 53°18' W 002°54'0 0.0
2016-Jul-25 10:27N 53°18' W 002°54'0 0.0
2016-Jul-25 09:33N 53°18' W 002°54'0 0.0
2016-Jul-25 08:30N 53°18' W 002°54'0 0.0
2016-Jul-25 07:33N 53°18' W 002°54'0 0.0
2016-Jul-25 06:27N 53°18' W 002°54'0 0.0
2016-Jul-25 05:27N 53°18' W 002°54'0 0.0
2016-Jul-25 04:33N 53°18' W 002°54'0 0.0
2016-Jul-25 03:33N 53°18' W 002°54'0 0.0
2016-Jul-25 02:33N 53°18' W 002°54'0 0.0
2016-Jul-25 01:33N 53°18' W 002°54'0 0.0
2016-Jul-25 00:33N 53°18' W 002°54'0 0.0
2016-Jul-24 23:30N 53°18' W 002°54'0 0.0
2016-Jul-24 22:33N 53°18' W 002°54'0 0.0
2016-Jul-24 21:30N 53°18' W 002°54'0 0.0
2016-Jul-24 20:33N 53°18' W 002°54'0 0.0
2016-Jul-24 19:33N 53°18' W 002°54'0 0.0
2016-Jul-24 18:27N 53°18' W 002°54'0 0.0
2016-Jul-24 17:30N 53°18' W 002°54'0 0.1
2016-Jul-24 16:33N 53°18' W 002°54'3 2.6
2016-Jul-24 15:33N 53°20' W 002°57'4 3.8
2016-Jul-24 14:33N 53°23' W 002°60'5 5.4
2016-Jul-24 13:33N 53°28' W 003°03'8 7.5
2016-Jul-24 12:33N 53°31' W 003°15'5 5.4
2016-Jul-24 11:33N 53°29' W 003°23'1 1.0
2016-Jul-24 10:32N 53°28' W 003°22'0 0.0
2016-Jul-24 09:32N 53°28' W 003°22'0 0.1
2016-Jul-24 08:32N 53°28' W 003°22'0 0.0
2016-Jul-24 07:32N 53°28' W 003°22'0 0.0
2016-Jul-24 06:32N 53°28' W 003°22'0 0.0
2016-Jul-24 05:32N 53°28' W 003°22'0 0.0
2016-Jul-24 04:26N 53°28' W 003°22'0 0.0
2016-Jul-24 03:32N 53°28' W 003°22'0 0.0
2016-Jul-24 02:20N 53°28' W 003°22'0 0.1
2016-Jul-24 01:32N 53°28' W 003°22'0 0.0
2016-Jul-24 00:32N 53°28' W 003°22'0 0.0
2016-Jul-23 23:32N 53°28' W 003°22'0 0.0
2016-Jul-23 22:32N 53°28' W 003°22'0 0.2
2016-Jul-23 21:33N 53°28' W 003°22'8 7.6
2016-Jul-23 20:33N 53°31' W 003°34'1010.2
2016-Jul-23 19:33N 53°31' W 003°52'200 8.6
2016-Jul-22 20:22N 50°25' W 005°53'118 9.1
2016-Jul-22 07:19N 48°27' W 005°36'7 9.2
2016-Jul-22 06:33N 48°21' W 005°32'18 9.1
2016-Jul-22 04:33N 48°05' W 005°19'10 9.7
2016-Jul-22 03:33N 47°57' W 005°11'9 9.4
2016-Jul-22 02:34N 47°51' W 004°60'10 9.6
2016-Jul-22 01:34N 47°45' W 004°48'10 9.6
2016-Jul-22 00:33N 47°39' W 004°37'18 9.2
2016-Jul-21 22:33N 47°28' W 004°15'9 9.3
2016-Jul-21 21:33N 47°23' W 004°04'9 9.4
2016-Jul-21 20:33N 47°17' W 003°53'9 9.4
2016-Jul-21 19:33N 47°11' W 003°43'9 9.2
2016-Jul-21 18:33N 47°05' W 003°32'9 9.1
2016-Jul-21 17:33N 46°60' W 003°21'9 8.7
2016-Jul-21 16:33N 46°55' W 003°11'9 8.6
2016-Jul-21 15:33N 46°50' W 003°01'35 8.8
2016-Jul-21 11:33N 46°29' W 002°19'9 9.1
2016-Jul-21 10:33N 46°24' W 002°08'9 9.4
2016-Jul-21 09:33N 46°18' W 001°57'9 9.3
2016-Jul-21 08:33N 46°13' W 001°46'10 9.3
2016-Jul-21 07:31N 46°08' W 001°34'10 9.9
2016-Jul-21 06:33N 46°06' W 001°21'9 8.8
2016-Jul-21 05:34N 46°00' W 001°11'3 0.1
2016-Jul-19 13:32N 45°59' W 001°07'7 6.7
2016-Jul-19 12:29N 46°04' W 001°13'0 0.1
2016-Jul-19 11:32N 46°05' W 001°13'0 0.1
2016-Jul-19 10:29N 46°05' W 001°14'0 0.0
2016-Jul-19 09:29N 46°05' W 001°14'0 0.0
2016-Jul-19 08:33N 46°05' W 001°14'0 0.2
2016-Jul-19 07:33N 46°05' W 001°14'17 5.6
2016-Jul-19 04:33N 46°08' W 001°38'6 5.7
2016-Jul-19 03:33N 46°06' W 001°45'6 6.3
2016-Jul-19 02:33N 46°02' W 001°52'6 5.5
2016-Jul-19 01:31N 45°58' W 001°58'  

Dump ship's entire track history